createdAt,value
2018-10-21T00:00:20.588Z,101354.88
2018-10-21T00:02:48.173Z,101355.33
2018-10-21T00:05:15.730Z,101351.84
2018-10-21T00:07:43.642Z,101351.88
2018-10-21T00:10:12.424Z,101340.92
2018-10-21T00:12:40.117Z,101333.05
2018-10-21T00:15:08.464Z,101336.61
2018-10-21T00:17:35.997Z,101339.25
2018-10-21T00:20:03.550Z,101344.63
2018-10-21T00:22:31.161Z,101344.30
2018-10-21T00:24:59.134Z,101347.80
2018-10-21T00:27:26.747Z,101349.64
2018-10-21T00:29:54.249Z,101352.33
2018-10-21T00:32:26.151Z,101344.57
2018-10-21T00:34:53.710Z,101349.10
2018-10-21T00:37:21.216Z,101348.34
2018-10-21T00:39:48.718Z,101342.80
2018-10-21T00:42:16.571Z,101330.20
2018-10-21T00:44:44.122Z,101326.41
2018-10-21T00:47:11.620Z,101329.14
2018-10-21T00:49:39.174Z,101314.78
2018-10-21T00:52:07.059Z,101316.75
2018-10-21T00:54:34.585Z,101306.77
2018-10-21T00:57:02.143Z,101299.01
2018-10-21T00:59:29.660Z,101307.77
2018-10-21T01:01:57.170Z,101303.37
2018-10-21T01:04:24.693Z,101306.41
2018-10-21T01:06:52.180Z,101309.45
2018-10-21T01:09:20.133Z,101316.97
2018-10-21T01:11:47.605Z,101328.84
2018-10-21T01:14:15.130Z,101323.92
2018-10-21T01:16:42.638Z,101326.04
2018-10-21T01:19:10.517Z,101323.35
2018-10-21T01:21:38.201Z,101325.52
2018-10-21T01:24:05.758Z,101332.59
2018-10-21T01:26:33.690Z,101332.20
2018-10-21T01:29:01.226Z,101330.88
2018-10-21T01:31:28.751Z,101326.04
2018-10-21T01:33:57.378Z,101327.88
2018-10-21T01:36:25.248Z,101333.68
2018-10-21T01:38:52.515Z,101329.77
2018-10-21T01:41:20.098Z,101333.72
2018-10-21T01:43:47.930Z,101331.53
2018-10-21T01:46:15.433Z,101335.89
2018-10-21T01:48:44.103Z,101331.17
2018-10-21T01:51:11.686Z,101333.48
2018-10-21T01:53:39.610Z,101332.25
2018-10-21T01:56:07.111Z,101329.66
2018-10-21T01:58:34.613Z,101328.42
2018-10-21T02:01:02.578Z,101326.73
2018-10-21T02:03:30.082Z,101324.14
2018-10-21T02:05:57.603Z,101317.71
2018-10-21T02:08:25.109Z,101324.02
2018-10-21T02:10:53.040Z,101324.98
2018-10-21T02:13:20.590Z,101318.95
2018-10-21T02:15:48.112Z,101320.78
2018-10-21T02:18:15.679Z,101323.83
2018-10-21T02:20:43.711Z,101325.50
2018-10-21T02:23:11.249Z,101331.58
2018-10-21T02:25:38.805Z,101340.81
2018-10-21T02:28:06.402Z,101331.11
2018-10-21T02:30:34.367Z,101328.47
2018-10-21T02:33:02.446Z,101327.55
2018-10-21T02:35:30.077Z,101326.66
2018-10-21T02:37:58.573Z,101327.98
2018-10-21T02:40:26.170Z,101327.51
2018-10-21T02:42:53.785Z,101321.87
2018-10-21T02:45:21.456Z,101321.67
2018-10-21T02:47:49.056Z,101322.35
2018-10-21T02:50:16.658Z,101322.11
2018-10-21T02:52:44.259Z,101313.95
2018-10-21T02:55:12.205Z,101315.83
2018-10-21T02:57:39.765Z,101314.66
2018-10-21T03:00:07.308Z,101318.70
2018-10-21T03:02:35.189Z,101314.38
2018-10-21T03:05:02.773Z,101301.75
2018-10-21T03:07:30.361Z,101295.27
2018-10-21T03:09:58.385Z,101294.00
2018-10-21T03:12:25.944Z,101287.87
2018-10-21T03:14:53.507Z,101285.17
2018-10-21T03:17:21.065Z,101283.37
2018-10-21T03:19:49.035Z,101286.00
2018-10-21T03:22:16.589Z,101287.33
2018-10-21T03:24:44.182Z,101281.14
2018-10-21T03:27:11.871Z,101283.30
2018-10-21T03:29:39.894Z,101278.38
2018-10-21T03:32:07.445Z,101283.58
2018-10-21T03:34:35.018Z,101285.70
2018-10-21T03:37:04.059Z,101276.87
2018-10-21T03:39:31.622Z,101273.31
2018-10-21T03:41:59.208Z,101279.86
2018-10-21T03:44:26.780Z,101273.78
2018-10-21T03:46:55.681Z,101269.47
2018-10-21T03:49:23.253Z,101275.19
2018-10-21T03:51:50.829Z,101274.83
2018-10-21T03:54:20.111Z,101269.16
2018-10-21T03:56:48.049Z,101274.91
2018-10-21T03:59:15.637Z,101276.66
2018-10-21T04:01:43.193Z,101281.94
2018-10-21T04:04:10.823Z,101278.90
2018-10-21T04:06:38.737Z,101278.38
2018-10-21T04:09:06.313Z,101274.94
2018-10-21T04:11:33.882Z,101276.70
2018-10-21T04:14:01.439Z,101273.74
2018-10-21T04:16:29.373Z,101270.27
2018-10-21T04:18:56.972Z,101265.95
2018-10-21T04:21:24.557Z,101263.39
2018-10-21T04:23:52.113Z,101259.88
2018-10-21T04:26:20.025Z,101259.44
2018-10-21T04:28:47.665Z,101258.16
2018-10-21T04:31:15.279Z,101254.65
2018-10-21T04:33:44.162Z,101245.94
2018-10-21T04:36:13.949Z,101247.37
2018-10-21T04:38:41.556Z,101240.46
2018-10-21T04:41:09.113Z,101246.69
2018-10-21T04:43:37.177Z,101245.89
2018-10-21T04:46:04.736Z,101242.89
2018-10-21T04:48:32.320Z,101246.05
2018-10-21T04:50:59.885Z,101240.88
2018-10-21T04:53:27.760Z,101241.33
2018-10-21T04:55:55.407Z,101236.97
2018-10-21T04:58:22.981Z,101238.33
2018-10-21T05:00:50.607Z,101235.25
2018-10-21T05:03:18.450Z,101231.81
2018-10-21T05:05:45.996Z,101234.78
2018-10-21T05:08:13.565Z,101229.94
2018-10-21T05:10:41.630Z,101228.14
2018-10-21T05:13:10.200Z,101233.94
2018-10-21T05:15:39.014Z,101231.81
2018-10-21T05:18:06.673Z,101230.61
2018-10-21T05:20:34.689Z,101231.64
2018-10-21T05:23:02.253Z,101234.47
2018-10-21T05:25:29.817Z,101225.84
2018-10-21T05:27:58.235Z,101233.01
2018-10-21T05:30:25.783Z,101226.97
2018-10-21T05:32:53.359Z,101232.72
2018-10-21T05:35:21.704Z,101224.93
2018-10-21T05:37:49.296Z,101228.88
2018-10-21T05:40:18.193Z,101224.52
2018-10-21T05:42:46.056Z,101228.00
2018-10-21T05:45:14.123Z,101228.77
2018-10-21T05:47:42.114Z,101231.77
2018-10-21T05:50:09.888Z,101232.50
2018-10-21T05:52:37.987Z,101229.34
2018-10-21T05:55:05.529Z,101228.47
2018-10-21T05:57:33.084Z,101228.03
2018-10-21T06:00:00.649Z,101230.70
2018-10-21T06:02:28.210Z,101235.57
2018-10-21T06:04:56.830Z,101235.68
2018-10-21T06:07:24.830Z,101247.53
2018-10-21T06:09:53.064Z,101244.50
2018-10-21T06:12:20.643Z,101247.61
2018-10-21T06:14:49.554Z,101246.41
2018-10-21T06:17:25.521Z,101251.70
2018-10-21T06:19:56.077Z,101256.17
2018-10-21T06:22:23.617Z,101256.53
2018-10-21T06:24:51.153Z,101256.50
2018-10-21T06:27:19.197Z,101266.52
2018-10-21T06:29:46.796Z,101268.64
2018-10-21T06:32:14.358Z,101271.61
2018-10-21T06:34:42.041Z,101270.95
2018-10-21T06:37:10.025Z,101273.40
2018-10-21T06:39:37.628Z,101282.52
2018-10-21T06:42:05.176Z,101289.83
2018-10-21T06:44:32.749Z,101281.77
2018-10-21T06:47:01.691Z,101280.70
2018-10-21T06:49:29.246Z,101287.98
2018-10-21T06:51:56.836Z,101287.75
2018-10-21T06:54:24.391Z,101293.71
2018-10-21T06:56:52.588Z,101295.23
2018-10-21T06:59:20.009Z,101294.92
2018-10-21T07:01:47.605Z,101298.68
2018-10-21T07:04:15.642Z,101292.29
2018-10-21T07:06:43.470Z,101295.05
2018-10-21T07:09:11.064Z,101299.16
2018-10-21T07:11:38.943Z,101299.23
2018-10-21T07:14:06.493Z,101293.14
2018-10-21T07:16:34.265Z,101291.45
2018-10-21T07:19:02.163Z,101283.58
2018-10-21T07:21:29.748Z,101286.67
2018-10-21T07:23:57.885Z,101287.16
2018-10-21T07:26:25.741Z,101291.91
2018-10-21T07:28:53.326Z,101277.33
2018-10-21T07:31:21.093Z,101283.88
2018-10-21T07:33:49.125Z,101280.77
2018-10-21T07:36:16.694Z,101277.16
2018-10-21T07:38:44.288Z,101275.17
2018-10-21T07:41:12.325Z,101269.94
2018-10-21T07:43:41.198Z,101267.30
2018-10-21T07:46:10.425Z,101269.57
2018-10-21T07:48:38.400Z,101262.34
2018-10-21T07:51:05.952Z,101266.09
2018-10-21T07:53:33.493Z,101263.69
2018-10-21T07:56:01.442Z,101264.32
2018-10-21T08:01:01.932Z,101259.02
2018-10-21T08:03:29.926Z,101256.37
2018-10-21T08:05:57.477Z,101266.02
2018-10-21T08:08:26.129Z,101268.80
2018-10-21T08:10:55.363Z,101272.59
2018-10-21T08:13:24.243Z,101271.89
2018-10-21T08:15:52.444Z,101274.56
2018-10-21T08:18:20.352Z,101274.31
2018-10-21T08:20:49.136Z,101273.97
2018-10-21T08:23:18.356Z,101267.55
2018-10-21T08:25:47.544Z,101262.05
2018-10-21T08:28:15.675Z,101265.38
2018-10-21T08:30:43.272Z,101273.74
2018-10-21T08:33:12.288Z,101270.25
2018-10-21T08:35:39.853Z,101268.88
2018-10-21T08:38:07.388Z,101267.33
2018-10-21T08:40:35.248Z,101262.98
2018-10-21T08:43:03.924Z,101261.39
2018-10-21T08:45:31.473Z,101259.22
2018-10-21T08:47:59.462Z,101257.56
2018-10-21T08:50:27.002Z,101256.81
2018-10-21T08:52:54.584Z,101250.02
2018-10-21T08:55:22.473Z,101248.13
2018-10-21T08:57:50.065Z,101250.80
2018-10-21T09:00:19.679Z,101244.91
2018-10-21T09:02:50.788Z,101246.63
2018-10-21T09:05:20.383Z,101248.36
2018-10-21T09:07:48.185Z,101244.36
2018-10-21T09:10:17.586Z,101239.03
2018-10-21T09:12:45.162Z,101240.45
2018-10-21T09:15:14.367Z,101240.57
2018-10-21T09:17:44.249Z,101238.95
2018-10-21T09:20:14.397Z,101236.53
2018-10-21T09:22:43.913Z,101240.69
2018-10-21T09:25:12.715Z,101242.56
2018-10-21T09:27:41.210Z,101238.18
2018-10-21T09:30:08.775Z,101242.09
2018-10-21T09:32:36.629Z,101236.62
2018-10-21T09:35:04.210Z,101246.61
2018-10-21T09:37:32.479Z,101243.16
2018-10-21T09:40:00.613Z,101245.11
2018-10-21T09:42:28.199Z,101240.49
2018-10-21T09:44:57.625Z,101235.75
2018-10-21T09:47:25.468Z,101230.09
2018-10-21T09:49:54.628Z,101225.06
2018-10-21T09:52:22.877Z,101219.73
2018-10-21T09:54:51.504Z,101216.09
2018-10-21T09:57:19.064Z,101205.86
2018-10-21T09:59:47.236Z,101198.84
2018-10-21T10:02:20.201Z,101193.08
2018-10-21T10:04:47.782Z,101191.30
2018-10-21T10:07:15.434Z,101181.09
2018-10-21T10:09:43.489Z,101173.36
2018-10-21T10:12:11.554Z,101176.66
2018-10-21T10:14:39.209Z,101173.91
2018-10-21T10:17:07.311Z,101170.41
2018-10-21T10:19:34.929Z,101163.09
2018-10-21T10:22:02.644Z,101160.93
2018-10-21T10:24:30.682Z,101166.20
2018-10-21T10:26:59.665Z,101158.42
2018-10-21T10:29:27.440Z,101163.79
2018-10-21T10:31:55.576Z,101156.70
2018-10-21T10:34:23.130Z,101150.22
2018-10-21T10:36:51.373Z,101148.05
2018-10-21T10:39:19.506Z,101151.78
2018-10-21T10:41:47.300Z,101152.52
2018-10-21T10:44:18.513Z,101150.02
2018-10-21T10:46:47.513Z,101151.44
2018-10-21T10:49:15.171Z,101145.37
2018-10-21T10:51:42.758Z,101151.80
2018-10-21T10:54:10.754Z,101144.84
2018-10-21T10:56:38.346Z,101150.08
2018-10-21T10:59:05.972Z,101144.30
2018-10-21T11:01:33.972Z,101142.14
2018-10-21T11:04:01.659Z,101144.94
2018-10-21T11:06:29.857Z,101147.11
2018-10-21T11:08:58.749Z,101143.80
2018-10-21T11:11:26.316Z,101138.84
2018-10-21T11:13:54.621Z,101139.22
2018-10-21T11:16:22.592Z,101132.43
2018-10-21T11:18:50.725Z,101131.73
2018-10-21T11:21:19.212Z,101125.61
2018-10-21T11:23:47.939Z,101130.65
2018-10-21T11:26:15.509Z,101119.08
2018-10-21T11:28:44.673Z,101117.56
2018-10-21T11:31:12.712Z,101111.69
2018-10-21T11:33:40.307Z,101107.55
2018-10-21T11:36:09.640Z,101109.20
2018-10-21T11:38:37.504Z,101105.52
2018-10-21T11:41:05.088Z,101103.86
2018-10-21T11:43:32.623Z,101100.47
2018-10-21T11:46:00.595Z,101101.25
2018-10-21T11:48:28.159Z,101091.72
2018-10-21T11:50:55.748Z,101088.33
2018-10-21T11:53:23.665Z,101087.84
2018-10-21T11:55:52.983Z,101081.61
2018-10-21T11:58:20.537Z,101084.98
2018-10-21T12:00:48.668Z,101082.64
2018-10-21T12:03:16.936Z,101080.96
2018-10-21T12:05:45.654Z,101080.31
2018-10-21T12:08:14.938Z,101078.45
2018-10-21T12:10:42.548Z,101070.02
2018-10-21T12:13:10.641Z,101056.02
2018-10-21T12:15:38.238Z,101062.83
2018-10-21T12:18:05.913Z,101059.55
2018-10-21T12:20:33.912Z,101054.47
2018-10-21T12:23:02.527Z,101056.06
2018-10-21T12:25:30.256Z,101057.81
2018-10-21T12:27:58.135Z,101054.05
2018-10-21T12:30:26.333Z,101052.12
2018-10-21T12:32:54.000Z,101049.86
2018-10-21T12:35:23.052Z,101045.75
2018-10-21T12:37:50.624Z,101037.28
2018-10-21T12:40:19.812Z,101038.41
2018-10-21T12:42:48.073Z,101034.63
2018-10-21T12:45:15.631Z,101042.95
2018-10-21T12:47:44.949Z,101033.91
2018-10-21T12:50:14.452Z,101039.80
2018-10-21T12:52:42.116Z,101028.73
2018-10-21T12:55:11.750Z,101030.25
2018-10-21T12:57:39.928Z,101030.26
2018-10-21T13:00:07.534Z,101028.83
2018-10-21T13:02:36.238Z,101023.73
2018-10-21T13:05:04.081Z,101020.82
2018-10-21T13:07:31.665Z,101019.42
2018-10-21T13:09:59.310Z,101017.64
2018-10-21T13:12:31.580Z,101024.33
2018-10-21T13:14:59.173Z,101021.06
2018-10-21T13:17:26.774Z,101020.06
2018-10-21T13:19:56.236Z,101021.24
2018-10-21T13:22:24.472Z,101019.28
2018-10-21T13:24:52.116Z,101010.47
2018-10-21T13:27:20.080Z,101009.63
2018-10-21T13:29:48.298Z,101007.59
2018-10-21T13:32:16.926Z,101002.81
2018-10-21T13:34:45.605Z,101000.63
2018-10-21T13:37:13.400Z,100998.28
2018-10-21T13:39:41.811Z,100991.77
2018-10-21T13:42:09.707Z,100991.98
2018-10-21T13:44:37.257Z,100988.12
2018-10-21T13:47:04.792Z,100982.59
2018-10-21T13:49:32.669Z,100980.30
2018-10-21T13:52:00.520Z,100984.20
2018-10-21T13:54:28.147Z,100976.64
2018-10-21T13:56:56.980Z,100970.03
2018-10-21T13:59:24.554Z,100973.20
2018-10-21T14:01:52.130Z,100972.37
2018-10-21T14:04:21.673Z,100974.56
2018-10-21T14:06:49.329Z,100968.98
2018-10-21T14:09:18.432Z,100967.25
2018-10-21T14:11:47.114Z,100966.55
2018-10-21T14:14:14.708Z,100965.51
2018-10-21T14:16:42.547Z,100957.08
2018-10-21T14:19:10.720Z,100958.42
2018-10-21T14:21:40.083Z,100953.08
2018-10-21T14:24:08.454Z,100955.55
2018-10-21T14:26:36.374Z,100947.45
2018-10-21T14:29:03.976Z,100953.52
2018-10-21T14:31:31.509Z,100947.06
2018-10-21T14:33:59.347Z,100944.58
2018-10-21T14:36:26.954Z,100945.14
2018-10-21T14:38:54.578Z,100938.60
2018-10-21T14:41:22.596Z,100933.20
2018-10-21T14:43:50.628Z,100933.25
2018-10-21T14:46:18.188Z,100927.84
2018-10-21T14:48:46.840Z,100933.91
2018-10-21T14:51:14.491Z,100925.56
2018-10-21T14:53:42.698Z,100924.90
2018-10-21T14:56:11.715Z,100931.59
2018-10-21T14:58:39.322Z,100924.44
2018-10-21T15:01:06.930Z,100920.53
2018-10-21T15:03:35.203Z,100917.45
2018-10-21T15:06:02.732Z,100915.77
2018-10-21T15:08:30.300Z,100919.69
2018-10-21T15:10:59.590Z,100914.09
2018-10-21T15:13:28.039Z,100919.44
2018-10-21T15:15:55.607Z,100916.47
2018-10-21T15:18:23.605Z,100914.84
2018-10-21T15:20:54.823Z,100917.06
2018-10-21T15:23:22.391Z,100914.06
2018-10-21T15:25:50.284Z,100910.08
2018-10-21T15:28:17.913Z,100912.45
2018-10-21T15:30:45.463Z,100910.65
2018-10-21T15:33:14.468Z,100907.46
2018-10-21T15:35:42.136Z,100905.61
2018-10-21T15:38:09.716Z,100909.84
2018-10-21T15:40:38.270Z,100902.87
2018-10-21T15:43:05.805Z,100902.58
2018-10-21T15:45:33.572Z,100905.98
2018-10-21T15:48:02.067Z,100905.80
2018-10-21T15:50:30.329Z,100910.02
2018-10-21T15:52:57.887Z,100905.70
2018-10-21T15:55:25.708Z,100907.71
2018-10-21T15:57:53.264Z,100909.67
2018-10-21T16:00:20.840Z,100913.24
2018-10-21T16:02:48.824Z,100909.74
2018-10-21T16:05:18.906Z,100908.09
2018-10-21T16:07:46.463Z,100920.16
2018-10-21T16:10:14.409Z,100914.47
2018-10-21T16:12:41.949Z,100915.80
2018-10-21T16:15:10.077Z,100918.11
2018-10-21T16:17:37.953Z,100923.48
2018-10-21T16:20:06.196Z,100919.55
2018-10-21T16:22:33.765Z,100922.34
2018-10-21T16:25:02.769Z,100921.12
2018-10-21T16:27:31.544Z,100925.56
2018-10-21T16:29:59.129Z,100925.66
2018-10-21T16:32:27.608Z,100924.77
2018-10-21T16:34:56.274Z,100920.48
2018-10-21T16:37:25.702Z,100926.64
2018-10-21T16:39:56.265Z,100931.81
2018-10-21T16:42:23.810Z,100923.65
2018-10-21T16:44:53.896Z,100921.27
2018-10-21T16:47:21.800Z,100924.52
2018-10-21T16:49:49.365Z,100923.33
2018-10-21T16:52:18.505Z,100927.55
2018-10-21T16:54:46.535Z,100926.16
2018-10-21T16:57:16.560Z,100926.02
2018-10-21T16:59:44.684Z,100923.78
2018-10-21T17:02:13.377Z,100930.30
2018-10-21T17:04:41.010Z,100934.91
2018-10-21T17:07:09.720Z,100936.21
2018-10-21T17:09:38.251Z,100934.20
2018-10-21T17:12:07.308Z,100938.27
2018-10-21T17:14:37.316Z,100944.51
2018-10-21T17:17:06.483Z,100948.80
2018-10-21T17:19:36.377Z,100946.14
2018-10-21T17:22:07.095Z,100948.68
2018-10-21T17:24:35.266Z,100949.69
2018-10-21T17:27:04.263Z,100952.91
2018-10-21T17:29:33.480Z,100949.50
2018-10-21T17:32:02.473Z,100945.31
2018-10-21T17:34:31.309Z,100946.64
2018-10-21T17:37:01.712Z,100947.70
2018-10-21T17:39:30.866Z,100956.39
2018-10-21T17:41:58.539Z,100955.87
2018-10-21T17:44:27.349Z,100963.78
2018-10-21T17:46:55.765Z,100961.89
2018-10-21T17:49:23.309Z,100956.00
2018-10-21T17:51:55.649Z,100965.19
2018-10-21T17:54:23.264Z,100960.62
2018-10-21T17:56:56.569Z,100963.60
2018-10-21T17:59:25.412Z,100960.75
2018-10-21T18:01:52.976Z,100957.43
2018-10-21T18:04:20.560Z,100957.73
2018-10-21T18:06:50.603Z,100964.62
2018-10-21T18:09:19.310Z,100962.72
2018-10-21T18:11:46.900Z,100962.65
2018-10-21T18:14:15.648Z,100970.95
2018-10-21T18:16:44.777Z,100967.25
2018-10-21T18:19:13.323Z,100970.47
2018-10-21T18:21:41.512Z,100968.48
2018-10-21T18:24:09.185Z,100964.61
2018-10-21T18:26:37.678Z,100969.86
2018-10-21T18:29:07.092Z,100965.46
2018-10-21T18:31:35.277Z,100969.29
2018-10-21T18:34:03.720Z,100966.55
2018-10-21T18:36:32.553Z,100964.86
2018-10-21T18:39:00.994Z,100965.53
2018-10-21T18:41:28.738Z,100966.20
2018-10-21T18:43:56.837Z,100961.84
2018-10-21T18:46:24.465Z,100956.98
2018-10-21T18:48:52.774Z,100958.69
2018-10-21T18:51:20.793Z,100959.09
2018-10-21T18:53:48.328Z,100962.70
2018-10-21T18:56:15.872Z,100961.83
2018-10-21T18:58:44.690Z,100959.61
2018-10-21T19:01:13.360Z,100962.72
2018-10-21T19:03:41.207Z,100962.25
2018-10-21T19:06:09.760Z,100964.81
2018-10-21T19:11:12.329Z,100968.27
2018-10-21T19:13:42.806Z,100963.88
2018-10-21T19:16:10.576Z,100970.05
2018-10-21T19:18:38.115Z,100965.08
2018-10-21T19:21:06.096Z,100962.39
2018-10-21T19:23:35.369Z,100959.25
2018-10-21T19:26:03.006Z,100957.02
2018-10-21T19:28:31.698Z,100960.98
2018-10-21T19:31:01.022Z,100958.66
2018-10-21T19:33:28.591Z,100961.20
2018-10-21T19:35:58.425Z,100968.11
2018-10-21T19:38:30.387Z,100964.96
2018-10-21T19:40:58.469Z,100964.20
2018-10-21T19:43:26.669Z,100960.30
2018-10-21T19:45:56.181Z,100966.06
2018-10-21T19:48:24.356Z,100967.95
2018-10-21T19:50:54.522Z,100972.13
2018-10-21T19:53:22.403Z,100969.80
2018-10-21T19:55:50.047Z,100974.35
2018-10-21T19:58:18.593Z,100974.50
2018-10-21T20:00:47.584Z,100971.47
2018-10-21T20:03:15.156Z,100968.05
2018-10-21T20:08:18.982Z,100960.42
2018-10-21T20:10:46.597Z,100960.60
2018-10-21T20:13:14.676Z,100960.75
2018-10-21T20:15:43.134Z,100958.73
2018-10-21T20:18:11.759Z,100960.32
2018-10-21T20:20:39.605Z,100961.03
2018-10-21T20:23:08.500Z,100958.55
2018-10-21T20:25:36.591Z,100960.21
2018-10-21T20:28:04.483Z,100967.97
2018-10-21T20:30:32.026Z,100966.02
2018-10-21T20:33:00.475Z,100971.89
2018-10-21T20:35:28.844Z,100970.56
2018-10-21T20:37:57.767Z,100975.10
2018-10-21T20:40:25.328Z,100970.81
2018-10-21T20:42:52.899Z,100970.88
2018-10-21T20:45:23.831Z,100978.57
2018-10-21T20:47:52.008Z,100981.47
2018-10-21T20:50:19.593Z,100969.39
2018-10-21T20:52:48.195Z,100973.55
2018-10-21T20:55:17.729Z,100978.55
2018-10-21T20:57:45.536Z,100977.36
2018-10-21T21:00:14.456Z,100978.86
2018-10-21T21:02:43.513Z,100983.53
2018-10-21T21:05:11.083Z,100994.38
2018-10-21T21:07:39.119Z,100993.39
2018-10-21T21:10:06.651Z,100998.06
2018-10-21T21:12:34.253Z,100996.10
2018-10-21T21:15:02.100Z,101002.52
2018-10-21T21:17:29.663Z,101003.20
2018-10-21T21:19:58.340Z,101002.05
2018-10-21T21:22:27.125Z,101002.56
2018-10-21T21:24:58.354Z,101006.54
2018-10-21T21:27:25.948Z,101005.00
2018-10-21T21:29:53.834Z,101004.68
2018-10-21T21:32:22.053Z,101006.45
2018-10-21T21:34:49.609Z,101003.03
2018-10-21T21:37:17.596Z,101012.38
2018-10-21T21:39:46.016Z,101016.34
2018-10-21T21:42:14.394Z,101018.16
2018-10-21T21:44:42.473Z,101017.29
2018-10-21T21:47:10.056Z,101030.15
2018-10-21T21:49:38.358Z,101025.47
2018-10-21T21:52:06.300Z,101030.45
2018-10-21T21:54:33.829Z,101029.34
2018-10-21T21:57:01.383Z,101026.09
2018-10-21T21:59:30.611Z,101024.05
2018-10-21T22:01:59.060Z,101023.80
2018-10-21T22:04:27.154Z,101024.02
2018-10-21T22:06:56.332Z,101021.92
2018-10-21T22:09:24.420Z,101020.73
2018-10-21T22:11:51.974Z,101025.25
2018-10-21T22:14:19.529Z,101018.30
2018-10-21T22:16:47.585Z,101024.47
2018-10-21T22:19:15.140Z,101022.28
2018-10-21T22:21:42.668Z,101016.53
2018-10-21T22:24:13.009Z,101009.03
2018-10-21T22:26:40.513Z,101017.46
2018-10-21T22:29:08.408Z,101010.03
2018-10-21T22:31:36.431Z,101012.30
2018-10-21T22:34:04.020Z,101011.30
2018-10-21T22:36:31.651Z,101009.59
2018-10-21T22:38:59.212Z,101010.03
2018-10-21T22:41:28.040Z,101004.29
2018-10-21T22:43:56.869Z,101008.26
2018-10-21T22:46:24.449Z,101006.55
2018-10-21T22:48:51.990Z,101008.88
2018-10-21T22:51:20.043Z,101006.84
2018-10-21T22:53:47.593Z,101003.15
2018-10-21T22:56:15.133Z,101007.83
2018-10-21T22:58:42.731Z,101010.21
2018-10-21T23:01:10.633Z,101006.91
2018-10-21T23:03:42.463Z,101006.69
2018-10-21T23:06:10.049Z,101013.42
2018-10-21T23:08:38.399Z,101010.48
2018-10-21T23:11:06.398Z,101008.77
2018-10-21T23:13:34.804Z,101004.70
2018-10-21T23:16:02.381Z,101001.67
2018-10-21T23:18:30.464Z,101007.45
2018-10-21T23:20:58.086Z,101005.80
2018-10-21T23:23:25.633Z,101013.34
2018-10-21T23:25:53.180Z,101008.11
2018-10-21T23:28:22.501Z,101012.53
2018-10-21T23:30:50.037Z,101016.59
2018-10-21T23:33:17.569Z,101013.29
2018-10-21T23:35:45.452Z,101016.00
2018-10-21T23:38:13.020Z,101007.22
2018-10-21T23:40:40.544Z,101005.51
2018-10-21T23:43:08.479Z,101005.09
2018-10-21T23:45:36.484Z,100999.34
2018-10-21T23:48:04.062Z,101001.60
2018-10-21T23:50:31.641Z,101005.96
2018-10-21T23:52:59.199Z,101003.37
2018-10-21T23:55:27.133Z,101000.73
2018-10-21T23:57:54.708Z,101002.20
